sensor_id;sensor_type;location;lat;lon;timestamp;temperature;humidity
7666;DHT22;3875;46.562;4.898;2023-06-26T00:00:04;24.30;71.00
7666;DHT22;3875;46.562;4.898;2023-06-26T00:02:30;24.30;71.00
7666;DHT22;3875;46.562;4.898;2023-06-26T00:04:58;24.30;71.10
7666;DHT22;3875;46.562;4.898;2023-06-26T00:07:28;24.40;70.90
7666;DHT22;3875;46.562;4.898;2023-06-26T00:09:54;24.40;70.90
7666;DHT22;3875;46.562;4.898;2023-06-26T00:12:19;24.40;70.60
7666;DHT22;3875;46.562;4.898;2023-06-26T00:14:45;24.50;70.60
7666;DHT22;3875;46.562;4.898;2023-06-26T00:17:11;24.50;70.40
7666;DHT22;3875;46.562;4.898;2023-06-26T00:19:37;24.60;70.00
7666;DHT22;3875;46.562;4.898;2023-06-26T00:22:03;24.80;69.60
7666;DHT22;3875;46.562;4.898;2023-06-26T00:24:28;24.80;69.40
7666;DHT22;3875;46.562;4.898;2023-06-26T00:26:54;24.80;69.40
7666;DHT22;3875;46.562;4.898;2023-06-26T00:29:20;24.80;69.40
7666;DHT22;3875;46.562;4.898;2023-06-26T00:31:46;24.80;69.30
7666;DHT22;3875;46.562;4.898;2023-06-26T00:34:11;24.90;69.20
7666;DHT22;3875;46.562;4.898;2023-06-26T00:36:37;25.00;69.00
7666;DHT22;3875;46.562;4.898;2023-06-26T00:39:03;25.00;68.90
7666;DHT22;3875;46.562;4.898;2023-06-26T00:41:29;25.10;68.80
7666;DHT22;3875;46.562;4.898;2023-06-26T00:43:55;25.10;68.80
7666;DHT22;3875;46.562;4.898;2023-06-26T00:46:20;25.20;68.90
7666;DHT22;3875;46.562;4.898;2023-06-26T00:48:48;25.20;69.10
7666;DHT22;3875;46.562;4.898;2023-06-26T00:51:13;25.20;69.00
7666;DHT22;3875;46.562;4.898;2023-06-26T00:53:39;25.20;69.20
7666;DHT22;3875;46.562;4.898;2023-06-26T00:56:05;25.20;69.40
7666;DHT22;3875;46.562;4.898;2023-06-26T00:58:31;25.20;69.60
7666;DHT22;3875;46.562;4.898;2023-06-26T01:00:57;25.20;69.90
7666;DHT22;3875;46.562;4.898;2023-06-26T01:03:24;25.10;70.40
7666;DHT22;3875;46.562;4.898;2023-06-26T01:05:52;25.10;70.50
7666;DHT22;3875;46.562;4.898;2023-06-26T01:08:18;25.00;71.00
7666;DHT22;3875;46.562;4.898;2023-06-26T01:10:44;24.90;71.50
7666;DHT22;3875;46.562;4.898;2023-06-26T01:13:11;24.90;71.60
7666;DHT22;3875;46.562;4.898;2023-06-26T01:15:38;24.90;71.80
7666;DHT22;3875;46.562;4.898;2023-06-26T01:18:05;24.80;71.90
7666;DHT22;3875;46.562;4.898;2023-06-26T01:20:32;24.80;72.10
7666;DHT22;3875;46.562;4.898;2023-06-26T01:23:22;24.80;72.10
7666;DHT22;3875;46.562;4.898;2023-06-26T01:28:44;24.80;72.10
7666;DHT22;3875;46.562;4.898;2023-06-26T01:31:11;24.70;72.20
7666;DHT22;3875;46.562;4.898;2023-06-26T01:33:39;24.70;72.50
7666;DHT22;3875;46.562;4.898;2023-06-26T01:36:06;24.70;72.60
7666;DHT22;3875;46.562;4.898;2023-06-26T01:38:32;24.70;72.70
7666;DHT22;3875;46.562;4.898;2023-06-26T01:40:58;24.60;72.70
7666;DHT22;3875;46.562;4.898;2023-06-26T01:43:29;24.70;72.50
7666;DHT22;3875;46.562;4.898;2023-06-26T01:46:04;24.70;72.70
7666;DHT22;3875;46.562;4.898;2023-06-26T01:48:34;24.60;72.80
7666;DHT22;3875;46.562;4.898;2023-06-26T01:51:04;24.60;72.80
7666;DHT22;3875;46.562;4.898;2023-06-26T01:53:36;24.70;72.80
7666;DHT22;3875;46.562;4.898;2023-06-26T01:56:08;24.60;73.10
7666;DHT22;3875;46.562;4.898;2023-06-26T01:58:37;24.50;73.10
7666;DHT22;3875;46.562;4.898;2023-06-26T02:01:03;24.50;73.20
7666;DHT22;3875;46.562;4.898;2023-06-26T02:03:29;24.50;73.40
7666;DHT22;3875;46.562;4.898;2023-06-26T02:05:55;24.40;73.40
7666;DHT22;3875;46.562;4.898;2023-06-26T02:08:21;24.30;73.60
7666;DHT22;3875;46.562;4.898;2023-06-26T02:10:48;24.30;73.80
7666;DHT22;3875;46.562;4.898;2023-06-26T02:13:13;24.40;73.40
7666;DHT22;3875;46.562;4.898;2023-06-26T02:15:39;24.40;73.60
7666;DHT22;3875;46.562;4.898;2023-06-26T02:18:05;24.40;73.60
7666;DHT22;3875;46.562;4.898;2023-06-26T02:20:30;24.40;73.50
7666;DHT22;3875;46.562;4.898;2023-06-26T02:22:57;24.40;73.70
7666;DHT22;3875;46.562;4.898;2023-06-26T02:25:22;24.30;73.90
7666;DHT22;3875;46.562;4.898;2023-06-26T02:27:48;24.30;73.70
7666;DHT22;3875;46.562;4.898;2023-06-26T02:30:14;24.30;74.10
7666;DHT22;3875;46.562;4.898;2023-06-26T02:32:39;24.30;73.90
7666;DHT22;3875;46.562;4.898;2023-06-26T02:35:06;24.30;73.90
7666;DHT22;3875;46.562;4.898;2023-06-26T02:37:31;24.20;74.10
7666;DHT22;3875;46.562;4.898;2023-06-26T02:39:57;24.20;73.90
7666;DHT22;3875;46.562;4.898;2023-06-26T02:42:23;24.20;74.10
7666;DHT22;3875;46.562;4.898;2023-06-26T02:44:48;24.20;74.20
7666;DHT22;3875;46.562;4.898;2023-06-26T02:47:14;24.20;74.50
7666;DHT22;3875;46.562;4.898;2023-06-26T02:49:40;24.10;74.50
7666;DHT22;3875;46.562;4.898;2023-06-26T02:52:06;24.10;74.60
7666;DHT22;3875;46.562;4.898;2023-06-26T02:54:31;24.00;74.60
7666;DHT22;3875;46.562;4.898;2023-06-26T02:56:58;24.10;74.50
7666;DHT22;3875;46.562;4.898;2023-06-26T02:59:25;24.00;74.60
7666;DHT22;3875;46.562;4.898;2023-06-26T03:01:51;24.00;74.50
7666;DHT22;3875;46.562;4.898;2023-06-26T03:04:17;24.10;74.30
7666;DHT22;3875;46.562;4.898;2023-06-26T03:06:43;24.00;74.60
7666;DHT22;3875;46.562;4.898;2023-06-26T03:09:09;24.10;74.60
7666;DHT22;3875;46.562;4.898;2023-06-26T03:11:35;24.10;74.40
7666;DHT22;3875;46.562;4.898;2023-06-26T03:14:00;24.10;74.20
7666;DHT22;3875;46.562;4.898;2023-06-26T03:16:26;24.10;74.20
7666;DHT22;3875;46.562;4.898;2023-06-26T03:18:52;24.00;74.50
7666;DHT22;3875;46.562;4.898;2023-06-26T03:21:17;24.10;74.40
7666;DHT22;3875;46.562;4.898;2023-06-26T03:23:43;24.00;74.40
7666;DHT22;3875;46.562;4.898;2023-06-26T03:26:09;24.00;74.60
7666;DHT22;3875;46.562;4.898;2023-06-26T03:28:34;23.90;75.10
7666;DHT22;3875;46.562;4.898;2023-06-26T03:31:00;23.90;75.20
7666;DHT22;3875;46.562;4.898;2023-06-26T03:33:26;23.80;75.30
7666;DHT22;3875;46.562;4.898;2023-06-26T03:35:51;23.80;75.40
7666;DHT22;3875;46.562;4.898;2023-06-26T03:38:17;23.80;75.20
7666;DHT22;3875;46.562;4.898;2023-06-26T03:40:43;23.80;75.30
7666;DHT22;3875;46.562;4.898;2023-06-26T03:43:08;23.80;75.30
7666;DHT22;3875;46.562;4.898;2023-06-26T03:45:34;23.70;75.60
7666;DHT22;3875;46.562;4.898;2023-06-26T03:48:00;23.80;75.40
7666;DHT22;3875;46.562;4.898;2023-06-26T03:50:25;23.70;75.70
7666;DHT22;3875;46.562;4.898;2023-06-26T03:52:51;23.70;75.60
7666;DHT22;3875;46.562;4.898;2023-06-26T03:55:17;23.60;75.90
7666;DHT22;3875;46.562;4.898;2023-06-26T03:57:43;23.50;76.40
7666;DHT22;3875;46.562;4.898;2023-06-26T04:00:09;23.50;76.10
7666;DHT22;3875;46.562;4.898;2023-06-26T04:02:37;23.50;76.40
7666;DHT22;3875;46.562;4.898;2023-06-26T04:05:04;23.50;76.50
7666;DHT22;3875;46.562;4.898;2023-06-26T04:07:30;23.50;76.40
7666;DHT22;3875;46.562;4.898;2023-06-26T04:09:57;23.50;76.40
7666;DHT22;3875;46.562;4.898;2023-06-26T04:12:22;23.60;76.30
7666;DHT22;3875;46.562;4.898;2023-06-26T04:14:48;23.50;76.40
7666;DHT22;3875;46.562;4.898;2023-06-26T04:17:14;23.60;76.00
7666;DHT22;3875;46.562;4.898;2023-06-26T04:19:39;23.70;75.80
7666;DHT22;3875;46.562;4.898;2023-06-26T04:22:05;23.70;75.50
7666;DHT22;3875;46.562;4.898;2023-06-26T04:24:31;23.70;75.60
7666;DHT22;3875;46.562;4.898;2023-06-26T04:26:57;23.70;75.80
7666;DHT22;3875;46.562;4.898;2023-06-26T04:29:23;23.70;76.10
7666;DHT22;3875;46.562;4.898;2023-06-26T04:31:51;23.70;76.10
7666;DHT22;3875;46.562;4.898;2023-06-26T04:34:17;23.70;76.00
7666;DHT22;3875;46.562;4.898;2023-06-26T04:36:43;23.80;75.80
7666;DHT22;3875;46.562;4.898;2023-06-26T04:39:14;23.90;75.50
7666;DHT22;3875;46.562;4.898;2023-06-26T04:41:40;24.00;75.50
7666;DHT22;3875;46.562;4.898;2023-06-26T04:44:06;24.10;75.30
7666;DHT22;3875;46.562;4.898;2023-06-26T04:46:31;24.10;75.10
7666;DHT22;3875;46.562;4.898;2023-06-26T04:48:57;24.20;75.00
7666;DHT22;3875;46.562;4.898;2023-06-26T04:51:24;24.20;75.00
7666;DHT22;3875;46.562;4.898;2023-06-26T04:53:50;24.30;74.90
7666;DHT22;3875;46.562;4.898;2023-06-26T04:56:15;24.10;75.30
7666;DHT22;3875;46.562;4.898;2023-06-26T04:58:41;24.20;75.40
7666;DHT22;3875;46.562;4.898;2023-06-26T05:01:07;24.10;75.60
7666;DHT22;3875;46.562;4.898;2023-06-26T05:03:33;24.10;75.60
7666;DHT22;3875;46.562;4.898;2023-06-26T05:05:59;24.20;75.60
7666;DHT22;3875;46.562;4.898;2023-06-26T05:08:26;24.10;75.90
7666;DHT22;3875;46.562;4.898;2023-06-26T05:10:52;24.10;76.10
7666;DHT22;3875;46.562;4.898;2023-06-26T05:13:26;23.80;77.00
7666;DHT22;3875;46.562;4.898;2023-06-26T05:15:52;23.70;77.30
7666;DHT22;3875;46.562;4.898;2023-06-26T05:18:18;23.40;78.10
7666;DHT22;3875;46.562;4.898;2023-06-26T05:20:44;23.30;78.40
7666;DHT22;3875;46.562;4.898;2023-06-26T05:23:11;23.30;79.30
7666;DHT22;3875;46.562;4.898;2023-06-26T05:25:38;23.30;79.10
7666;DHT22;3875;46.562;4.898;2023-06-26T05:28:04;23.30;78.70
7666;DHT22;3875;46.562;4.898;2023-06-26T05:30:35;23.40;78.70
7666;DHT22;3875;46.562;4.898;2023-06-26T05:33:02;23.50;78.60
7666;DHT22;3875;46.562;4.898;2023-06-26T05:35:31;23.60;78.60
7666;DHT22;3875;46.562;4.898;2023-06-26T05:37:57;23.50;78.40
7666;DHT22;3875;46.562;4.898;2023-06-26T05:40:23;23.60;78.20
7666;DHT22;3875;46.562;4.898;2023-06-26T05:42:49;23.70;78.20
7666;DHT22;3875;46.562;4.898;2023-06-26T05:45:15;23.80;77.90
7666;DHT22;3875;46.562;4.898;2023-06-26T05:47:41;23.90;77.60
7666;DHT22;3875;46.562;4.898;2023-06-26T05:50:09;24.10;77.30
7666;DHT22;3875;46.562;4.898;2023-06-26T05:52:35;24.00;77.50
7666;DHT22;3875;46.562;4.898;2023-06-26T05:55:02;24.20;77.10
7666;DHT22;3875;46.562;4.898;2023-06-26T05:57:29;24.30;77.00
7666;DHT22;3875;46.562;4.898;2023-06-26T05:59:55;24.50;76.60
7666;DHT22;3875;46.562;4.898;2023-06-26T06:02:22;24.50;76.50
7666;DHT22;3875;46.562;4.898;2023-06-26T06:04:48;24.70;76.10
7666;DHT22;3875;46.562;4.898;2023-06-26T06:07:14;24.70;76.00
7666;DHT22;3875;46.562;4.898;2023-06-26T06:09:40;24.70;76.00
7666;DHT22;3875;46.562;4.898;2023-06-26T06:12:06;24.90;75.90
7666;DHT22;3875;46.562;4.898;2023-06-26T06:14:36;24.90;75.90
7666;DHT22;3875;46.562;4.898;2023-06-26T06:17:01;24.90;75.60
7666;DHT22;3875;46.562;4.898;2023-06-26T06:19:27;24.70;75.90
7666;DHT22;3875;46.562;4.898;2023-06-26T06:21:53;24.90;75.70
7666;DHT22;3875;46.562;4.898;2023-06-26T06:24:19;25.10;75.20
7666;DHT22;3875;46.562;4.898;2023-06-26T06:26:45;25.10;75.20
7666;DHT22;3875;46.562;4.898;2023-06-26T06:29:11;25.50;74.70
7666;DHT22;3875;46.562;4.898;2023-06-26T06:31:37;25.80;74.10
7666;DHT22;3875;46.562;4.898;2023-06-26T06:34:02;25.80;73.50
7666;DHT22;3875;46.562;4.898;2023-06-26T06:36:28;25.90;73.50
7666;DHT22;3875;46.562;4.898;2023-06-26T06:38:54;26.10;73.10
7666;DHT22;3875;46.562;4.898;2023-06-26T06:41:20;26.30;72.40
7666;DHT22;3875;46.562;4.898;2023-06-26T06:43:47;26.10;72.20
7666;DHT22;3875;46.562;4.898;2023-06-26T06:46:12;25.90;73.20
7666;DHT22;3875;46.562;4.898;2023-06-26T06:48:38;26.10;73.20
7666;DHT22;3875;46.562;4.898;2023-06-26T06:51:04;26.60;72.70
7666;DHT22;3875;46.562;4.898;2023-06-26T06:53:30;27.00;71.40
7666;DHT22;3875;46.562;4.898;2023-06-26T06:55:56;27.10;70.70
7666;DHT22;3875;46.562;4.898;2023-06-26T06:58:22;27.20;70.70
7666;DHT22;3875;46.562;4.898;2023-06-26T07:00:50;27.30;71.00
7666;DHT22;3875;46.562;4.898;2023-06-26T07:03:18;27.30;70.00
7666;DHT22;3875;46.562;4.898;2023-06-26T07:05:44;27.40;70.00
7666;DHT22;3875;46.562;4.898;2023-06-26T07:08:10;27.40;69.80
7666;DHT22;3875;46.562;4.898;2023-06-26T07:10:36;27.30;69.10
7666;DHT22;3875;46.562;4.898;2023-06-26T07:13:01;26.70;69.90
7666;DHT22;3875;46.562;4.898;2023-06-26T07:15:27;26.50;70.90
7666;DHT22;3875;46.562;4.898;2023-06-26T07:17:53;26.70;71.00
7666;DHT22;3875;46.562;4.898;2023-06-26T07:20:18;26.90;70.60
7666;DHT22;3875;46.562;4.898;2023-06-26T07:22:44;27.20;70.00
7666;DHT22;3875;46.562;4.898;2023-06-26T07:25:10;27.60;68.80
7666;DHT22;3875;46.562;4.898;2023-06-26T07:27:40;27.60;68.00
7666;DHT22;3875;46.562;4.898;2023-06-26T07:30:07;27.50;68.00
7666;DHT22;3875;46.562;4.898;2023-06-26T07:32:36;27.40;69.50
7666;DHT22;3875;46.562;4.898;2023-06-26T07:35:02;28.20;66.40
7666;DHT22;3875;46.562;4.898;2023-06-26T07:37:28;28.50;64.80
7666;DHT22;3875;46.562;4.898;2023-06-26T07:39:53;28.70;64.60
7666;DHT22;3875;46.562;4.898;2023-06-26T07:42:19;28.50;64.80
7666;DHT22;3875;46.562;4.898;2023-06-26T07:44:45;28.40;64.60
7666;DHT22;3875;46.562;4.898;2023-06-26T07:47:11;28.50;64.50
7666;DHT22;3875;46.562;4.898;2023-06-26T07:49:37;28.70;64.30
7666;DHT22;3875;46.562;4.898;2023-06-26T07:52:04;28.90;63.90
7666;DHT22;3875;46.562;4.898;2023-06-26T07:54:30;29.00;63.00
7666;DHT22;3875;46.562;4.898;2023-06-26T07:57:01;29.00;62.40
7666;DHT22;3875;46.562;4.898;2023-06-26T07:59:27;29.00;63.40
7666;DHT22;3875;46.562;4.898;2023-06-26T08:01:55;29.30;62.10
7666;DHT22;3875;46.562;4.898;2023-06-26T08:04:22;29.60;61.50
7666;DHT22;3875;46.562;4.898;2023-06-26T08:06:49;29.60;61.60
7666;DHT22;3875;46.562;4.898;2023-06-26T08:09:16;29.40;61.20
7666;DHT22;3875;46.562;4.898;2023-06-26T08:11:42;29.30;62.20
7666;DHT22;3875;46.562;4.898;2023-06-26T08:14:08;29.40;62.10
7666;DHT22;3875;46.562;4.898;2023-06-26T08:16:34;29.40;61.60
7666;DHT22;3875;46.562;4.898;2023-06-26T08:19:00;29.60;61.10
7666;DHT22;3875;46.562;4.898;2023-06-26T08:21:26;29.50;61.10
7666;DHT22;3875;46.562;4.898;2023-06-26T08:23:53;29.60;61.50
7666;DHT22;3875;46.562;4.898;2023-06-26T08:26:19;29.70;61.20
7666;DHT22;3875;46.562;4.898;2023-06-26T08:28:45;30.00;60.30
7666;DHT22;3875;46.562;4.898;2023-06-26T08:31:10;29.80;60.90
7666;DHT22;3875;46.562;4.898;2023-06-26T08:33:36;30.00;60.30
7666;DHT22;3875;46.562;4.898;2023-06-26T08:36:02;30.20;61.60
7666;DHT22;3875;46.562;4.898;2023-06-26T08:38:28;29.90;61.70
7666;DHT22;3875;46.562;4.898;2023-06-26T08:40:53;30.20;61.90
7666;DHT22;3875;46.562;4.898;2023-06-26T08:43:19;30.50;61.30
7666;DHT22;3875;46.562;4.898;2023-06-26T08:45:47;30.60;59.70
7666;DHT22;3875;46.562;4.898;2023-06-26T08:48:17;30.30;61.00
7666;DHT22;3875;46.562;4.898;2023-06-26T08:50:43;30.60;60.50
7666;DHT22;3875;46.562;4.898;2023-06-26T08:56:07;31.40;60.00
7666;DHT22;3875;46.562;4.898;2023-06-26T08:58:35;31.70;59.20
7666;DHT22;3875;46.562;4.898;2023-06-26T09:01:04;31.40;59.30
7666;DHT22;3875;46.562;4.898;2023-06-26T09:03:31;31.40;58.70
7666;DHT22;3875;46.562;4.898;2023-06-26T09:05:57;31.50;58.20
7666;DHT22;3875;46.562;4.898;2023-06-26T09:08:23;31.50;58.30
7666;DHT22;3875;46.562;4.898;2023-06-26T09:10:48;31.60;58.00
7666;DHT22;3875;46.562;4.898;2023-06-26T09:13:14;31.60;58.90
7666;DHT22;3875;46.562;4.898;2023-06-26T09:15:44;31.90;58.70
7666;DHT22;3875;46.562;4.898;2023-06-26T09:18:10;32.30;58.00
7666;DHT22;3875;46.562;4.898;2023-06-26T09:20:36;32.50;57.10
7666;DHT22;3875;46.562;4.898;2023-06-26T09:23:03;32.60;57.10
7666;DHT22;3875;46.562;4.898;2023-06-26T09:25:29;32.80;56.40
7666;DHT22;3875;46.562;4.898;2023-06-26T09:27:56;32.50;55.20
7666;DHT22;3875;46.562;4.898;2023-06-26T09:30:22;32.30;56.10
7666;DHT22;3875;46.562;4.898;2023-06-26T09:32:48;32.40;56.50
7666;DHT22;3875;46.562;4.898;2023-06-26T09:35:15;32.20;57.20
7666;DHT22;3875;46.562;4.898;2023-06-26T09:37:40;32.00;57.30
7666;DHT22;3875;46.562;4.898;2023-06-26T09:40:07;32.00;57.50
7666;DHT22;3875;46.562;4.898;2023-06-26T09:42:33;32.00;57.60
7666;DHT22;3875;46.562;4.898;2023-06-26T09:44:59;32.40;57.10
7666;DHT22;3875;46.562;4.898;2023-06-26T09:47:25;32.70;56.70
7666;DHT22;3875;46.562;4.898;2023-06-26T09:49:51;32.70;56.20
7666;DHT22;3875;46.562;4.898;2023-06-26T09:52:18;33.20;54.40
7666;DHT22;3875;46.562;4.898;2023-06-26T09:54:45;32.90;54.40
7666;DHT22;3875;46.562;4.898;2023-06-26T09:57:16;32.30;55.00
7666;DHT22;3875;46.562;4.898;2023-06-26T09:59:43;31.60;55.80
7666;DHT22;3875;46.562;4.898;2023-06-26T10:02:11;31.90;55.70
7666;DHT22;3875;46.562;4.898;2023-06-26T10:04:37;32.10;55.00
7666;DHT22;3875;46.562;4.898;2023-06-26T10:07:10;32.80;55.30
7666;DHT22;3875;46.562;4.898;2023-06-26T10:09:40;33.10;53.70
7666;DHT22;3875;46.562;4.898;2023-06-26T10:14:37;32.90;53.80
7666;DHT22;3875;46.562;4.898;2023-06-26T10:17:06;32.70;54.80
7666;DHT22;3875;46.562;4.898;2023-06-26T10:19:35;32.90;55.20
7666;DHT22;3875;46.562;4.898;2023-06-26T10:22:03;33.10;53.80
7666;DHT22;3875;46.562;4.898;2023-06-26T10:24:33;33.50;53.60
7666;DHT22;3875;46.562;4.898;2023-06-26T10:27:03;33.70;53.50
7666;DHT22;3875;46.562;4.898;2023-06-26T10:29:30;33.50;52.90
7666;DHT22;3875;46.562;4.898;2023-06-26T10:31:58;33.20;54.10
7666;DHT22;3875;46.562;4.898;2023-06-26T10:34:26;33.30;55.40
7666;DHT22;3875;46.562;4.898;2023-06-26T10:37:02;33.50;54.80
7666;DHT22;3875;46.562;4.898;2023-06-26T10:39:49;33.50;53.60
7666;DHT22;3875;46.562;4.898;2023-06-26T10:42:16;33.20;53.60
7666;DHT22;3875;46.562;4.898;2023-06-26T10:44:46;32.50;54.50
7666;DHT22;3875;46.562;4.898;2023-06-26T10:47:32;32.10;56.40
7666;DHT22;3875;46.562;4.898;2023-06-26T10:50:27;32.30;55.40
7666;DHT22;3875;46.562;4.898;2023-06-26T10:56:02;31.50;57.20
7666;DHT22;3875;46.562;4.898;2023-06-26T11:01:18;32.50;57.30
7666;DHT22;3875;46.562;4.898;2023-06-26T11:06:24;33.40;55.70
7666;DHT22;3875;46.562;4.898;2023-06-26T11:08:54;33.30;55.30
7666;DHT22;3875;46.562;4.898;2023-06-26T11:11:21;32.90;54.80
7666;DHT22;3875;46.562;4.898;2023-06-26T11:13:47;32.70;55.60
7666;DHT22;3875;46.562;4.898;2023-06-26T11:16:14;32.90;56.00
7666;DHT22;3875;46.562;4.898;2023-06-26T11:18:40;32.80;55.20
7666;DHT22;3875;46.562;4.898;2023-06-26T11:21:09;33.30;54.40
7666;DHT22;3875;46.562;4.898;2023-06-26T11:23:37;33.40;54.80
7666;DHT22;3875;46.562;4.898;2023-06-26T11:26:16;33.60;53.50
7666;DHT22;3875;46.562;4.898;2023-06-26T11:28:55;34.10;53.40
7666;DHT22;3875;46.562;4.898;2023-06-26T11:31:32;34.50;53.00
7666;DHT22;3875;46.562;4.898;2023-06-26T11:34:00;34.40;52.40
7666;DHT22;3875;46.562;4.898;2023-06-26T11:36:26;34.50;52.20
7666;DHT22;3875;46.562;4.898;2023-06-26T11:38:56;34.80;52.50
7666;DHT22;3875;46.562;4.898;2023-06-26T11:41:24;35.10;51.20
7666;DHT22;3875;46.562;4.898;2023-06-26T11:43:51;35.30;51.30
7666;DHT22;3875;46.562;4.898;2023-06-26T11:46:18;35.00;51.30
7666;DHT22;3875;46.562;4.898;2023-06-26T11:48:44;34.50;52.00
7666;DHT22;3875;46.562;4.898;2023-06-26T11:51:15;34.40;53.00
7666;DHT22;3875;46.562;4.898;2023-06-26T11:53:42;34.60;52.50
7666;DHT22;3875;46.562;4.898;2023-06-26T11:56:12;35.00;52.40
7666;DHT22;3875;46.562;4.898;2023-06-26T11:59:03;35.50;52.00
7666;DHT22;3875;46.562;4.898;2023-06-26T12:01:38;35.80;50.10
7666;DHT22;3875;46.562;4.898;2023-06-26T12:04:08;35.90;50.40
7666;DHT22;3875;46.562;4.898;2023-06-26T12:06:35;36.00;49.80
7666;DHT22;3875;46.562;4.898;2023-06-26T12:09:03;36.40;49.50
7666;DHT22;3875;46.562;4.898;2023-06-26T12:11:31;36.50;48.80
7666;DHT22;3875;46.562;4.898;2023-06-26T12:13:57;35.90;49.70
7666;DHT22;3875;46.562;4.898;2023-06-26T12:16:23;35.80;49.80
7666;DHT22;3875;46.562;4.898;2023-06-26T12:18:48;36.20;49.50
7666;DHT22;3875;46.562;4.898;2023-06-26T12:24:09;36.90;48.40
7666;DHT22;3875;46.562;4.898;2023-06-26T12:26:35;36.80;48.50
7666;DHT22;3875;46.562;4.898;2023-06-26T12:29:05;37.10;46.80
7666;DHT22;3875;46.562;4.898;2023-06-26T12:31:31;36.80;47.20
7666;DHT22;3875;46.562;4.898;2023-06-26T12:33:57;36.70;47.80
7666;DHT22;3875;46.562;4.898;2023-06-26T12:36:23;36.90;47.70
7666;DHT22;3875;46.562;4.898;2023-06-26T12:38:49;36.90;47.90
7666;DHT22;3875;46.562;4.898;2023-06-26T12:41:15;36.00;47.50
7666;DHT22;3875;46.562;4.898;2023-06-26T12:43:42;35.90;47.40
7666;DHT22;3875;46.562;4.898;2023-06-26T12:46:07;36.10;48.80
7666;DHT22;3875;46.562;4.898;2023-06-26T12:48:40;36.60;47.90
7666;DHT22;3875;46.562;4.898;2023-06-26T12:51:13;36.50;47.40
7666;DHT22;3875;46.562;4.898;2023-06-26T12:53:39;36.20;48.60
7666;DHT22;3875;46.562;4.898;2023-06-26T12:56:06;35.70;48.30
7666;DHT22;3875;46.562;4.898;2023-06-26T12:58:33;35.50;47.40
7666;DHT22;3875;46.562;4.898;2023-06-26T13:00:59;34.90;49.10
7666;DHT22;3875;46.562;4.898;2023-06-26T13:03:24;34.70;47.90
7666;DHT22;3875;46.562;4.898;2023-06-26T13:05:50;34.80;48.90
7666;DHT22;3875;46.562;4.898;2023-06-26T13:08:16;35.20;47.90
7666;DHT22;3875;46.562;4.898;2023-06-26T13:10:45;34.90;48.90
7666;DHT22;3875;46.562;4.898;2023-06-26T13:13:11;34.70;49.60
7666;DHT22;3875;46.562;4.898;2023-06-26T13:15:37;34.10;49.60
7666;DHT22;3875;46.562;4.898;2023-06-26T13:18:03;34.30;50.80
7666;DHT22;3875;46.562;4.898;2023-06-26T13:20:29;33.90;50.00
7666;DHT22;3875;46.562;4.898;2023-06-26T13:22:55;34.00;51.60
7666;DHT22;3875;46.562;4.898;2023-06-26T13:25:21;34.70;51.20
7666;DHT22;3875;46.562;4.898;2023-06-26T13:27:48;35.40;49.70
7666;DHT22;3875;46.562;4.898;2023-06-26T13:30:15;36.00;49.00
7666;DHT22;3875;46.562;4.898;2023-06-26T13:32:43;35.80;49.00
7666;DHT22;3875;46.562;4.898;2023-06-26T13:35:09;35.00;49.20
7666;DHT22;3875;46.562;4.898;2023-06-26T13:37:35;34.40;50.00
7666;DHT22;3875;46.562;4.898;2023-06-26T13:40:02;35.10;50.80
7666;DHT22;3875;46.562;4.898;2023-06-26T13:42:28;35.60;49.10
7666;DHT22;3875;46.562;4.898;2023-06-26T13:44:54;35.30;49.50
7666;DHT22;3875;46.562;4.898;2023-06-26T13:47:20;34.90;50.50
7666;DHT22;3875;46.562;4.898;2023-06-26T13:49:45;34.80;51.30
7666;DHT22;3875;46.562;4.898;2023-06-26T13:52:11;34.20;51.70
7666;DHT22;3875;46.562;4.898;2023-06-26T13:54:37;33.90;51.60
7666;DHT22;3875;46.562;4.898;2023-06-26T13:57:06;33.80;51.70
7666;DHT22;3875;46.562;4.898;2023-06-26T13:59:32;33.20;52.20
7666;DHT22;3875;46.562;4.898;2023-06-26T14:01:58;33.60;53.40
7666;DHT22;3875;46.562;4.898;2023-06-26T14:04:24;34.10;52.50
7666;DHT22;3875;46.562;4.898;2023-06-26T14:06:50;34.50;52.00
7666;DHT22;3875;46.562;4.898;2023-06-26T14:09:16;34.40;52.10
7666;DHT22;3875;46.562;4.898;2023-06-26T14:11:43;34.30;52.50
7666;DHT22;3875;46.562;4.898;2023-06-26T14:14:09;33.90;53.50
7666;DHT22;3875;46.562;4.898;2023-06-26T14:16:35;33.00;53.70
7666;DHT22;3875;46.562;4.898;2023-06-26T14:19:00;32.60;54.60
7666;DHT22;3875;46.562;4.898;2023-06-26T14:21:27;32.60;55.90
7666;DHT22;3875;46.562;4.898;2023-06-26T14:23:54;32.50;55.70
7666;DHT22;3875;46.562;4.898;2023-06-26T14:26:20;33.20;56.50
7666;DHT22;3875;46.562;4.898;2023-06-26T14:28:46;34.30;54.20
7666;DHT22;3875;46.562;4.898;2023-06-26T14:31:12;34.50;51.90
7666;DHT22;3875;46.562;4.898;2023-06-26T14:33:38;34.80;52.10
7666;DHT22;3875;46.562;4.898;2023-06-26T14:36:03;34.80;51.80
7666;DHT22;3875;46.562;4.898;2023-06-26T14:38:29;35.10;52.40
7666;DHT22;3875;46.562;4.898;2023-06-26T14:40:55;35.50;49.60
7666;DHT22;3875;46.562;4.898;2023-06-26T14:43:20;35.40;50.70
7666;DHT22;3875;46.562;4.898;2023-06-26T14:45:46;34.90;50.40
7666;DHT22;3875;46.562;4.898;2023-06-26T14:48:12;34.50;52.30
7666;DHT22;3875;46.562;4.898;2023-06-26T14:50:38;34.90;51.40
7666;DHT22;3875;46.562;4.898;2023-06-26T14:53:04;34.90;51.00
7666;DHT22;3875;46.562;4.898;2023-06-26T14:55:29;35.00;49.80
7666;DHT22;3875;46.562;4.898;2023-06-26T14:57:55;35.20;50.60
7666;DHT22;3875;46.562;4.898;2023-06-26T15:00:21;35.20;50.60
7666;DHT22;3875;46.562;4.898;2023-06-26T15:02:47;35.60;51.20
7666;DHT22;3875;46.562;4.898;2023-06-26T15:05:13;35.80;51.00
7666;DHT22;3875;46.562;4.898;2023-06-26T15:07:39;36.10;49.20
7666;DHT22;3875;46.562;4.898;2023-06-26T15:10:05;36.00;49.10
7666;DHT22;3875;46.562;4.898;2023-06-26T15:12:32;35.50;48.90
7666;DHT22;3875;46.562;4.898;2023-06-26T15:14:58;35.00;49.40
7666;DHT22;3875;46.562;4.898;2023-06-26T15:17:23;34.90;50.30
7666;DHT22;3875;46.562;4.898;2023-06-26T15:19:49;34.90;51.20
7666;DHT22;3875;46.562;4.898;2023-06-26T15:22:17;34.90;50.30
7666;DHT22;3875;46.562;4.898;2023-06-26T15:24:43;35.00;51.00
7666;DHT22;3875;46.562;4.898;2023-06-26T15:27:09;34.90;50.20
7666;DHT22;3875;46.562;4.898;2023-06-26T15:29:34;35.00;50.90
7666;DHT22;3875;46.562;4.898;2023-06-26T15:32:00;34.40;49.80
7666;DHT22;3875;46.562;4.898;2023-06-26T15:34:26;34.30;50.20
7666;DHT22;3875;46.562;4.898;2023-06-26T15:36:52;34.40;52.00
7666;DHT22;3875;46.562;4.898;2023-06-26T15:39:17;34.50;51.40
7666;DHT22;3875;46.562;4.898;2023-06-26T15:41:43;34.70;52.10
7666;DHT22;3875;46.562;4.898;2023-06-26T15:44:09;34.80;51.30
7666;DHT22;3875;46.562;4.898;2023-06-26T15:46:35;35.00;50.90
7666;DHT22;3875;46.562;4.898;2023-06-26T15:49:01;34.50;50.00
7666;DHT22;3875;46.562;4.898;2023-06-26T15:51:26;34.00;51.50
7666;DHT22;3875;46.562;4.898;2023-06-26T15:53:52;33.20;50.80
7666;DHT22;3875;46.562;4.898;2023-06-26T15:56:18;33.00;52.40
7666;DHT22;3875;46.562;4.898;2023-06-26T15:58:43;33.20;53.00
7666;DHT22;3875;46.562;4.898;2023-06-26T16:01:12;33.30;52.80
7666;DHT22;3875;46.562;4.898;2023-06-26T16:03:41;33.10;52.40
7666;DHT22;3875;46.562;4.898;2023-06-26T16:06:09;33.30;52.80
7666;DHT22;3875;46.562;4.898;2023-06-26T16:08:35;33.40;52.80
7666;DHT22;3875;46.562;4.898;2023-06-26T16:11:01;33.50;53.10
7666;DHT22;3875;46.562;4.898;2023-06-26T16:13:27;33.50;51.70
7666;DHT22;3875;46.562;4.898;2023-06-26T16:15:53;33.00;51.90
7666;DHT22;3875;46.562;4.898;2023-06-26T16:18:19;33.00;52.80